sensor_id;sensor_type;location;lat;lon;timestamp;P1;durP1;ratioP1;P2;durP2;ratioP2
5379;SDS011;2713;42.680;23.310;2023-05-07T00:01:07;13.90;;;12.33;;
5379;SDS011;2713;42.680;23.310;2023-05-07T00:03:35;14.20;;;12.27;;
5379;SDS011;2713;42.680;23.310;2023-05-07T00:06:01;16.13;;;11.67;;
5379;SDS011;2713;42.680;23.310;2023-05-07T00:08:28;13.90;;;12.17;;
5379;SDS011;2713;42.680;23.310;2023-05-07T00:10:55;13.10;;;11.53;;
5379;SDS011;2713;42.680;23.310;2023-05-07T00:13:22;16.00;;;12.30;;
5379;SDS011;2713;42.680;23.310;2023-05-07T00:15:49;17.00;;;12.73;;
5379;SDS011;2713;42.680;23.310;2023-05-07T00:18:17;13.20;;;11.80;;
5379;SDS011;2713;42.680;23.310;2023-05-07T00:20:47;13.13;;;11.37;;
5379;SDS011;2713;42.680;23.310;2023-05-07T00:23:13;12.53;;;10.90;;
5379;SDS011;2713;42.680;23.310;2023-05-07T00:25:40;11.90;;;10.67;;
5379;SDS011;2713;42.680;23.310;2023-05-07T00:28:07;17.97;;;11.20;;
5379;SDS011;2713;42.680;23.310;2023-05-07T00:30:33;13.50;;;10.93;;
5379;SDS011;2713;42.680;23.310;2023-05-07T00:33:00;15.30;;;10.97;;
5379;SDS011;2713;42.680;23.310;2023-05-07T00:35:29;12.37;;;11.07;;
5379;SDS011;2713;42.680;23.310;2023-05-07T00:37:56;13.60;;;11.10;;
5379;SDS011;2713;42.680;23.310;2023-05-07T00:40:23;12.53;;;10.53;;
5379;SDS011;2713;42.680;23.310;2023-05-07T00:42:49;13.50;;;10.83;;
5379;SDS011;2713;42.680;23.310;2023-05-07T00:45:23;14.90;;;10.33;;
5379;SDS011;2713;42.680;23.310;2023-05-07T00:47:53;15.53;;;10.90;;
5379;SDS011;2713;42.680;23.310;2023-05-07T00:50:21;14.30;;;10.80;;
5379;SDS011;2713;42.680;23.310;2023-05-07T00:52:49;13.87;;;11.47;;
5379;SDS011;2713;42.680;23.310;2023-05-07T00:55:16;12.30;;;10.87;;
5379;SDS011;2713;42.680;23.310;2023-05-07T00:57:44;18.33;;;12.87;;
5379;SDS011;2713;42.680;23.310;2023-05-07T01:00:11;12.50;;;11.20;;
5379;SDS011;2713;42.680;23.310;2023-05-07T01:02:39;16.47;;;12.70;;
5379;SDS011;2713;42.680;23.310;2023-05-07T01:05:06;15.23;;;11.83;;
5379;SDS011;2713;42.680;23.310;2023-05-07T01:07:36;16.10;;;12.10;;
5379;SDS011;2713;42.680;23.310;2023-05-07T01:10:06;14.90;;;12.30;;
5379;SDS011;2713;42.680;23.310;2023-05-07T01:12:35;13.50;;;12.10;;
5379;SDS011;2713;42.680;23.310;2023-05-07T01:15:03;15.20;;;11.30;;
5379;SDS011;2713;42.680;23.310;2023-05-07T01:17:33;14.03;;;11.40;;
5379;SDS011;2713;42.680;23.310;2023-05-07T01:20:17;15.33;;;12.20;;
5379;SDS011;2713;42.680;23.310;2023-05-07T01:22:47;13.97;;;12.10;;
5379;SDS011;2713;42.680;23.310;2023-05-07T01:25:17;16.60;;;13.33;;
5379;SDS011;2713;42.680;23.310;2023-05-07T01:27:48;14.50;;;12.57;;
5379;SDS011;2713;42.680;23.310;2023-05-07T01:30:16;13.80;;;12.10;;
5379;SDS011;2713;42.680;23.310;2023-05-07T01:32:45;14.40;;;12.47;;
5379;SDS011;2713;42.680;23.310;2023-05-07T01:35:18;14.10;;;11.90;;
5379;SDS011;2713;42.680;23.310;2023-05-07T01:37:48;14.20;;;12.23;;
5379;SDS011;2713;42.680;23.310;2023-05-07T01:40:19;14.73;;;11.17;;
5379;SDS011;2713;42.680;23.310;2023-05-07T01:42:47;12.77;;;10.40;;
5379;SDS011;2713;42.680;23.310;2023-05-07T01:45:14;12.87;;;11.00;;
5379;SDS011;2713;42.680;23.310;2023-05-07T01:47:41;12.90;;;9.30;;
5379;SDS011;2713;42.680;23.310;2023-05-07T01:50:09;12.43;;;9.37;;
5379;SDS011;2713;42.680;23.310;2023-05-07T01:52:36;10.53;;;9.47;;
5379;SDS011;2713;42.680;23.310;2023-05-07T01:55:06;9.37;;;7.70;;
5379;SDS011;2713;42.680;23.310;2023-05-07T01:57:33;10.03;;;7.83;;
5379;SDS011;2713;42.680;23.310;2023-05-07T02:00:00;10.57;;;9.30;;
5379;SDS011;2713;42.680;23.310;2023-05-07T02:02:28;10.10;;;9.00;;
5379;SDS011;2713;42.680;23.310;2023-05-07T02:04:57;9.50;;;8.60;;
5379;SDS011;2713;42.680;23.310;2023-05-07T02:07:24;9.07;;;8.10;;
5379;SDS011;2713;42.680;23.310;2023-05-07T02:09:51;7.83;;;7.03;;
5379;SDS011;2713;42.680;23.310;2023-05-07T02:12:19;8.37;;;7.50;;
5379;SDS011;2713;42.680;23.310;2023-05-07T02:14:46;8.33;;;6.80;;
5379;SDS011;2713;42.680;23.310;2023-05-07T02:17:13;8.60;;;7.70;;
5379;SDS011;2713;42.680;23.310;2023-05-07T02:19:40;12.43;;;7.80;;
5379;SDS011;2713;42.680;23.310;2023-05-07T02:22:07;9.47;;;8.57;;
5379;SDS011;2713;42.680;23.310;2023-05-07T02:24:34;8.97;;;7.93;;
5379;SDS011;2713;42.680;23.310;2023-05-07T02:27:01;9.87;;;8.43;;
5379;SDS011;2713;42.680;23.310;2023-05-07T02:29:29;9.13;;;8.23;;
5379;SDS011;2713;42.680;23.310;2023-05-07T02:31:56;8.97;;;8.07;;
5379;SDS011;2713;42.680;23.310;2023-05-07T02:34:23;9.00;;;8.10;;
5379;SDS011;2713;42.680;23.310;2023-05-07T02:36:50;10.50;;;8.63;;
5379;SDS011;2713;42.680;23.310;2023-05-07T02:39:20;9.23;;;8.20;;
5379;SDS011;2713;42.680;23.310;2023-05-07T02:41:47;9.50;;;7.97;;
5379;SDS011;2713;42.680;23.310;2023-05-07T02:44:14;8.07;;;7.37;;
5379;SDS011;2713;42.680;23.310;2023-05-07T02:46:44;8.00;;;7.20;;
5379;SDS011;2713;42.680;23.310;2023-05-07T02:49:12;9.13;;;8.23;;
5379;SDS011;2713;42.680;23.310;2023-05-07T02:51:39;9.27;;;8.40;;
5379;SDS011;2713;42.680;23.310;2023-05-07T02:54:10;9.63;;;8.60;;
5379;SDS011;2713;42.680;23.310;2023-05-07T02:56:37;9.70;;;8.70;;
5379;SDS011;2713;42.680;23.310;2023-05-07T02:59:04;11.50;;;9.30;;
5379;SDS011;2713;42.680;23.310;2023-05-07T03:01:36;11.57;;;9.37;;
5379;SDS011;2713;42.680;23.310;2023-05-07T03:04:08;11.00;;;9.87;;
5379;SDS011;2713;42.680;23.310;2023-05-07T03:06:35;12.50;;;10.40;;
5379;SDS011;2713;42.680;23.310;2023-05-07T03:09:02;12.03;;;9.60;;
5379;SDS011;2713;42.680;23.310;2023-05-07T03:11:29;13.13;;;10.50;;
5379;SDS011;2713;42.680;23.310;2023-05-07T03:13:56;11.63;;;10.30;;
5379;SDS011;2713;42.680;23.310;2023-05-07T03:16:23;11.30;;;9.93;;
5379;SDS011;2713;42.680;23.310;2023-05-07T03:18:50;15.10;;;10.67;;
5379;SDS011;2713;42.680;23.310;2023-05-07T03:21:19;11.53;;;10.33;;
5379;SDS011;2713;42.680;23.310;2023-05-07T03:23:45;13.27;;;11.13;;
5379;SDS011;2713;42.680;23.310;2023-05-07T03:26:12;12.80;;;10.70;;
5379;SDS011;2713;42.680;23.310;2023-05-07T03:28:39;13.40;;;11.17;;
5379;SDS011;2713;42.680;23.310;2023-05-07T03:31:10;11.63;;;9.90;;
5379;SDS011;2713;42.680;23.310;2023-05-07T03:33:39;14.60;;;11.83;;
5379;SDS011;2713;42.680;23.310;2023-05-07T03:36:18;12.83;;;11.00;;
5379;SDS011;2713;42.680;23.310;2023-05-07T03:38:46;18.00;;;11.50;;
5379;SDS011;2713;42.680;23.310;2023-05-07T03:41:15;12.77;;;10.97;;
5379;SDS011;2713;42.680;23.310;2023-05-07T03:43:44;13.37;;;10.80;;
5379;SDS011;2713;42.680;23.310;2023-05-07T03:46:11;15.50;;;11.40;;
5379;SDS011;2713;42.680;23.310;2023-05-07T03:48:38;18.90;;;11.67;;
5379;SDS011;2713;42.680;23.310;2023-05-07T03:51:06;11.50;;;10.30;;
5379;SDS011;2713;42.680;23.310;2023-05-07T03:53:34;14.73;;;11.00;;
5379;SDS011;2713;42.680;23.310;2023-05-07T03:56:01;14.50;;;11.33;;
5379;SDS011;2713;42.680;23.310;2023-05-07T03:58:32;12.93;;;11.57;;
5379;SDS011;2713;42.680;23.310;2023-05-07T04:01:04;14.73;;;10.60;;
5379;SDS011;2713;42.680;23.310;2023-05-07T04:03:30;12.00;;;10.80;;
5379;SDS011;2713;42.680;23.310;2023-05-07T04:05:59;12.97;;;10.40;;
5379;SDS011;2713;42.680;23.310;2023-05-07T04:08:26;14.77;;;11.50;;
5379;SDS011;2713;42.680;23.310;2023-05-07T04:10:58;11.70;;;10.50;;
5379;SDS011;2713;42.680;23.310;2023-05-07T04:13:29;13.57;;;10.70;;
5379;SDS011;2713;42.680;23.310;2023-05-07T04:15:57;12.27;;;10.97;;
5379;SDS011;2713;42.680;23.310;2023-05-07T04:18:25;13.17;;;10.63;;
5379;SDS011;2713;42.680;23.310;2023-05-07T04:20:52;13.80;;;11.60;;
5379;SDS011;2713;42.680;23.310;2023-05-07T04:23:20;12.50;;;11.20;;
5379;SDS011;2713;42.680;23.310;2023-05-07T04:25:47;13.17;;;11.60;;
5379;SDS011;2713;42.680;23.310;2023-05-07T04:28:23;14.93;;;12.10;;
5379;SDS011;2713;42.680;23.310;2023-05-07T04:30:51;18.43;;;14.00;;
5379;SDS011;2713;42.680;23.310;2023-05-07T04:33:19;13.90;;;12.40;;
5379;SDS011;2713;42.680;23.310;2023-05-07T04:35:47;16.60;;;12.33;;
5379;SDS011;2713;42.680;23.310;2023-05-07T04:38:14;14.63;;;12.37;;
5379;SDS011;2713;42.680;23.310;2023-05-07T04:40:41;16.50;;;12.57;;
5379;SDS011;2713;42.680;23.310;2023-05-07T04:43:11;14.80;;;11.50;;
5379;SDS011;2713;42.680;23.310;2023-05-07T04:45:45;14.23;;;12.27;;
5379;SDS011;2713;42.680;23.310;2023-05-07T04:48:14;16.83;;;12.70;;
5379;SDS011;2713;42.680;23.310;2023-05-07T04:50:41;15.13;;;12.47;;
5379;SDS011;2713;42.680;23.310;2023-05-07T04:53:08;14.67;;;11.37;;
5379;SDS011;2713;42.680;23.310;2023-05-07T04:55:36;13.00;;;11.10;;
5379;SDS011;2713;42.680;23.310;2023-05-07T04:58:03;11.80;;;10.70;;
5379;SDS011;2713;42.680;23.310;2023-05-07T05:00:32;12.33;;;10.97;;
5379;SDS011;2713;42.680;23.310;2023-05-07T05:03:03;12.13;;;10.83;;
5379;SDS011;2713;42.680;23.310;2023-05-07T05:05:31;12.03;;;10.73;;
5379;SDS011;2713;42.680;23.310;2023-05-07T05:07:58;11.20;;;9.80;;
5379;SDS011;2713;42.680;23.310;2023-05-07T05:10:25;11.07;;;9.40;;
5379;SDS011;2713;42.680;23.310;2023-05-07T05:12:52;11.80;;;10.47;;
5379;SDS011;2713;42.680;23.310;2023-05-07T05:15:21;10.83;;;9.83;;
5379;SDS011;2713;42.680;23.310;2023-05-07T05:17:48;12.80;;;9.70;;
5379;SDS011;2713;42.680;23.310;2023-05-07T05:20:16;11.40;;;10.20;;
5379;SDS011;2713;42.680;23.310;2023-05-07T05:22:43;13.10;;;10.73;;
5379;SDS011;2713;42.680;23.310;2023-05-07T05:25:12;13.30;;;10.30;;
5379;SDS011;2713;42.680;23.310;2023-05-07T05:27:39;12.27;;;10.97;;
5379;SDS011;2713;42.680;23.310;2023-05-07T05:30:07;12.30;;;11.00;;
5379;SDS011;2713;42.680;23.310;2023-05-07T05:32:35;10.77;;;9.67;;
5379;SDS011;2713;42.680;23.310;2023-05-07T05:35:02;11.50;;;10.30;;
5379;SDS011;2713;42.680;23.310;2023-05-07T05:37:31;14.23;;;10.93;;
5379;SDS011;2713;42.680;23.310;2023-05-07T05:39:59;12.97;;;10.73;;
5379;SDS011;2713;42.680;23.310;2023-05-07T05:42:28;11.47;;;10.30;;
5379;SDS011;2713;42.680;23.310;2023-05-07T05:44:55;11.63;;;10.37;;
5379;SDS011;2713;42.680;23.310;2023-05-07T05:47:22;13.50;;;11.93;;
5379;SDS011;2713;42.680;23.310;2023-05-07T05:49:53;11.37;;;10.27;;
5379;SDS011;2713;42.680;23.310;2023-05-07T05:52:20;14.80;;;11.93;;
5379;SDS011;2713;42.680;23.310;2023-05-07T05:54:50;12.40;;;10.77;;
5379;SDS011;2713;42.680;23.310;2023-05-07T05:57:18;13.13;;;11.70;;
5379;SDS011;2713;42.680;23.310;2023-05-07T05:59:45;12.47;;;10.83;;
5379;SDS011;2713;42.680;23.310;2023-05-07T06:02:13;16.03;;;12.37;;
5379;SDS011;2713;42.680;23.310;2023-05-07T06:04:40;13.50;;;12.10;;
5379;SDS011;2713;42.680;23.310;2023-05-07T06:07:08;11.80;;;10.60;;
5379;SDS011;2713;42.680;23.310;2023-05-07T06:09:35;11.60;;;10.50;;
5379;SDS011;2713;42.680;23.310;2023-05-07T06:12:03;11.20;;;10.10;;
5379;SDS011;2713;42.680;23.310;2023-05-07T06:14:31;11.90;;;10.70;;
5379;SDS011;2713;42.680;23.310;2023-05-07T06:16:58;11.33;;;10.13;;
5379;SDS011;2713;42.680;23.310;2023-05-07T06:19:25;16.67;;;11.93;;
5379;SDS011;2713;42.680;23.310;2023-05-07T06:21:54;20.60;;;12.10;;
5379;SDS011;2713;42.680;23.310;2023-05-07T06:24:23;12.63;;;11.07;;
5379;SDS011;2713;42.680;23.310;2023-05-07T06:26:50;12.07;;;10.77;;
5379;SDS011;2713;42.680;23.310;2023-05-07T06:29:18;18.43;;;11.30;;
5379;SDS011;2713;42.680;23.310;2023-05-07T06:31:45;13.13;;;10.93;;
5379;SDS011;2713;42.680;23.310;2023-05-07T06:34:12;12.63;;;10.97;;
5379;SDS011;2713;42.680;23.310;2023-05-07T06:36:40;11.53;;;10.33;;
5379;SDS011;2713;42.680;23.310;2023-05-07T06:39:19;13.00;;;10.87;;
5379;SDS011;2713;42.680;23.310;2023-05-07T06:41:46;12.27;;;10.77;;
5379;SDS011;2713;42.680;23.310;2023-05-07T06:44:24;15.37;;;11.90;;
5379;SDS011;2713;42.680;23.310;2023-05-07T06:47:09;13.23;;;10.17;;
5379;SDS011;2713;42.680;23.310;2023-05-07T06:49:38;12.10;;;10.90;;
5379;SDS011;2713;42.680;23.310;2023-05-07T06:52:05;11.17;;;10.03;;
5379;SDS011;2713;42.680;23.310;2023-05-07T06:54:32;12.57;;;11.27;;
5379;SDS011;2713;42.680;23.310;2023-05-07T07:21:51;12.73;;;10.67;;
5379;SDS011;2713;42.680;23.310;2023-05-07T07:24:18;13.68;;;12.25;;
5379;SDS011;2713;42.680;23.310;2023-05-07T07:26:48;11.57;;;10.38;;
5379;SDS011;2713;42.680;23.310;2023-05-07T07:29:16;12.47;;;11.17;;
5379;SDS011;2713;42.680;23.310;2023-05-07T07:31:44;12.63;;;10.30;;
5379;SDS011;2713;42.680;23.310;2023-05-07T07:34:11;13.20;;;11.90;;
5379;SDS011;2713;42.680;23.310;2023-05-07T07:36:38;12.03;;;10.90;;
5379;SDS011;2713;42.680;23.310;2023-05-07T07:39:07;12.63;;;11.13;;
5379;SDS011;2713;42.680;23.310;2023-05-07T07:41:35;12.90;;;10.40;;
5379;SDS011;2713;42.680;23.310;2023-05-07T07:44:02;14.20;;;10.10;;
5379;SDS011;2713;42.680;23.310;2023-05-07T07:46:34;13.27;;;10.80;;
5379;SDS011;2713;42.680;23.310;2023-05-07T07:49:02;12.07;;;10.68;;
5379;SDS011;2713;42.680;23.310;2023-05-07T07:51:29;12.53;;;10.60;;
5379;SDS011;2713;42.680;23.310;2023-05-07T07:53:58;12.47;;;10.73;;
5379;SDS011;2713;42.680;23.310;2023-05-07T07:56:26;12.55;;;10.35;;
5379;SDS011;2713;42.680;23.310;2023-05-07T07:58:54;13.47;;;10.67;;
5379;SDS011;2713;42.680;23.310;2023-05-07T08:01:21;13.33;;;10.67;;
5379;SDS011;2713;42.680;23.310;2023-05-07T08:03:48;11.30;;;10.10;;
5379;SDS011;2713;42.680;23.310;2023-05-07T08:06:16;13.73;;;11.17;;
5379;SDS011;2713;42.680;23.310;2023-05-07T08:08:43;12.00;;;10.70;;
5379;SDS011;2713;42.680;23.310;2023-05-07T08:11:10;11.50;;;10.33;;
5379;SDS011;2713;42.680;23.310;2023-05-07T08:13:38;10.65;;;9.55;;
5379;SDS011;2713;42.680;23.310;2023-05-07T08:16:05;10.23;;;9.20;;
5379;SDS011;2713;42.680;23.310;2023-05-07T08:18:34;11.07;;;9.87;;
5379;SDS011;2713;42.680;23.310;2023-05-07T08:21:02;11.07;;;9.50;;
5379;SDS011;2713;42.680;23.310;2023-05-07T08:23:30;11.10;;;9.90;;
5379;SDS011;2713;42.680;23.310;2023-05-07T08:25:57;10.80;;;9.70;;
5379;SDS011;2713;42.680;23.310;2023-05-07T08:28:24;9.75;;;8.60;;
5379;SDS011;2713;42.680;23.310;2023-05-07T08:30:52;10.83;;;9.00;;
5379;SDS011;2713;42.680;23.310;2023-05-07T08:33:21;11.50;;;9.20;;
5379;SDS011;2713;42.680;23.310;2023-05-07T08:35:48;9.82;;;8.75;;
5379;SDS011;2713;42.680;23.310;2023-05-07T08:38:15;9.60;;;8.63;;
5379;SDS011;2713;42.680;23.310;2023-05-07T08:40:42;10.10;;;8.45;;
5379;SDS011;2713;42.680;23.310;2023-05-07T08:43:14;13.70;;;9.10;;
5379;SDS011;2713;42.680;23.310;2023-05-07T08:45:42;10.07;;;9.03;;
5379;SDS011;2713;42.680;23.310;2023-05-07T08:48:15;12.47;;;9.57;;
5379;SDS011;2713;42.680;23.310;2023-05-07T08:50:49;11.15;;;9.55;;
5379;SDS011;2713;42.680;23.310;2023-05-07T08:53:16;9.80;;;8.80;;
5379;SDS011;2713;42.680;23.310;2023-05-07T08:55:44;11.60;;;9.23;;
5379;SDS011;2713;42.680;23.310;2023-05-07T08:58:13;12.37;;;9.33;;
5379;SDS011;2713;42.680;23.310;2023-05-07T09:00:39;10.90;;;9.40;;
5379;SDS011;2713;42.680;23.310;2023-05-07T09:03:08;9.87;;;8.93;;
5379;SDS011;2713;42.680;23.310;2023-05-07T09:05:39;10.00;;;9.00;;
5379;SDS011;2713;42.680;23.310;2023-05-07T09:08:07;11.18;;;9.80;;
5379;SDS011;2713;42.680;23.310;2023-05-07T09:10:35;9.93;;;8.93;;
5379;SDS011;2713;42.680;23.310;2023-05-07T09:13:04;10.47;;;8.97;;
5379;SDS011;2713;42.680;23.310;2023-05-07T09:15:31;9.60;;;8.23;;
5379;SDS011;2713;42.680;23.310;2023-05-07T09:17:59;11.00;;;8.87;;
5379;SDS011;2713;42.680;23.310;2023-05-07T09:20:30;8.80;;;7.90;;
5379;SDS011;2713;42.680;23.310;2023-05-07T09:22:59;9.87;;;8.07;;
5379;SDS011;2713;42.680;23.310;2023-05-07T09:25:28;11.70;;;9.20;;
5379;SDS011;2713;42.680;23.310;2023-05-07T09:27:56;9.33;;;8.00;;
5379;SDS011;2713;42.680;23.310;2023-05-07T09:30:23;8.53;;;7.70;;
5379;SDS011;2713;42.680;23.310;2023-05-07T09:32:54;7.80;;;7.10;;
5379;SDS011;2713;42.680;23.310;2023-05-07T09:35:21;8.10;;;7.30;;
5379;SDS011;2713;42.680;23.310;2023-05-07T09:37:55;8.50;;;6.77;;
5379;SDS011;2713;42.680;23.310;2023-05-07T09:40:25;8.18;;;7.00;;
5379;SDS011;2713;42.680;23.310;2023-05-07T09:42:54;7.33;;;6.63;;
5379;SDS011;2713;42.680;23.310;2023-05-07T09:45:22;6.30;;;5.50;;
5379;SDS011;2713;42.680;23.310;2023-05-07T09:47:53;6.50;;;5.70;;
5379;SDS011;2713;42.680;23.310;2023-05-07T09:50:23;6.57;;;6.07;;
5379;SDS011;2713;42.680;23.310;2023-05-07T09:52:54;6.90;;;6.30;;
5379;SDS011;2713;42.680;23.310;2023-05-07T09:55:24;6.50;;;5.90;;
5379;SDS011;2713;42.680;23.310;2023-05-07T09:57:52;7.50;;;6.77;;
5379;SDS011;2713;42.680;23.310;2023-05-07T10:00:20;7.33;;;6.60;;
5379;SDS011;2713;42.680;23.310;2023-05-07T10:02:57;6.60;;;6.10;;
5379;SDS011;2713;42.680;23.310;2023-05-07T10:05:33;7.40;;;6.23;;
5379;SDS011;2713;42.680;23.310;2023-05-07T10:08:00;7.00;;;6.40;;
5379;SDS011;2713;42.680;23.310;2023-05-07T10:10:29;7.67;;;6.40;;
5379;SDS011;2713;42.680;23.310;2023-05-07T10:12:59;6.60;;;6.00;;
5379;SDS011;2713;42.680;23.310;2023-05-07T10:15:31;6.63;;;5.93;;
5379;SDS011;2713;42.680;23.310;2023-05-07T10:18:00;6.23;;;5.40;;
5379;SDS011;2713;42.680;23.310;2023-05-07T10:20:29;6.17;;;5.67;;
5379;SDS011;2713;42.680;23.310;2023-05-07T10:22:57;7.00;;;5.70;;
5379;SDS011;2713;42.680;23.310;2023-05-07T10:25:34;7.53;;;6.70;;
5379;SDS011;2713;42.680;23.310;2023-05-07T10:28:07;6.40;;;5.90;;
5379;SDS011;2713;42.680;23.310;2023-05-07T10:30:44;6.40;;;5.80;;
5379;SDS011;2713;42.680;23.310;2023-05-07T10:33:23;7.03;;;6.13;;
5379;SDS011;2713;42.680;23.310;2023-05-07T10:35:55;8.10;;;5.70;;
5379;SDS011;2713;42.680;23.310;2023-05-07T10:38:25;6.05;;;5.55;;
5379;SDS011;2713;42.680;23.310;2023-05-07T10:40:55;6.57;;;5.77;;
5379;SDS011;2713;42.680;23.310;2023-05-07T10:43:23;6.10;;;5.60;;
5379;SDS011;2713;42.680;23.310;2023-05-07T10:51:44;6.60;;;6.00;;
5379;SDS011;2713;42.680;23.310;2023-05-07T10:54:23;7.70;;;6.20;;
5379;SDS011;2713;42.680;23.310;2023-05-07T10:57:00;7.47;;;5.85;;
5379;SDS011;2713;42.680;23.310;2023-05-07T11:00:05;6.37;;;5.87;;
5379;SDS011;2713;42.680;23.310;2023-05-07T11:03:11;6.63;;;6.03;;
5379;SDS011;2713;42.680;23.310;2023-05-07T11:06:10;7.40;;;6.70;;
5379;SDS011;2713;42.680;23.310;2023-05-07T11:08:58;7.13;;;6.53;;
5379;SDS011;2713;42.680;23.310;2023-05-07T11:11:44;6.50;;;6.03;;
5379;SDS011;2713;42.680;23.310;2023-05-07T11:17:15;7.37;;;6.67;;
5379;SDS011;2713;42.680;23.310;2023-05-07T11:19:48;7.30;;;6.60;;
5379;SDS011;2713;42.680;23.310;2023-05-07T11:22:35;7.20;;;6.60;;
5379;SDS011;2713;42.680;23.310;2023-05-07T11:25:20;6.90;;;6.40;;
5379;SDS011;2713;42.680;23.310;2023-05-07T11:27:53;6.07;;;5.68;;
5379;SDS011;2713;42.680;23.310;2023-05-07T11:30:22;6.30;;;5.70;;
5379;SDS011;2713;42.680;23.310;2023-05-07T11:32:49;6.20;;;5.70;;
5379;SDS011;2713;42.680;23.310;2023-05-07T11:35:17;8.38;;;6.00;;
5379;SDS011;2713;42.680;23.310;2023-05-07T11:37:46;6.30;;;5.90;;
5379;SDS011;2713;42.680;23.310;2023-05-07T11:40:15;6.77;;;6.17;;
5379;SDS011;2713;42.680;23.310;2023-05-07T11:42:42;8.07;;;6.80;;
5379;SDS011;2713;42.680;23.310;2023-05-07T11:45:09;7.17;;;6.20;;
5379;SDS011;2713;42.680;23.310;2023-05-07T11:47:37;6.97;;;6.33;;
5379;SDS011;2713;42.680;23.310;2023-05-07T11:50:08;6.22;;;5.72;;
5379;SDS011;2713;42.680;23.310;2023-05-07T11:52:36;6.63;;;6.13;;
5379;SDS011;2713;42.680;23.310;2023-05-07T11:55:04;6.33;;;5.63;;
5379;SDS011;2713;42.680;23.310;2023-05-07T11:57:33;6.53;;;5.93;;
5379;SDS011;2713;42.680;23.310;2023-05-07T12:00:00;6.20;;;5.70;;
5379;SDS011;2713;42.680;23.310;2023-05-07T12:02:39;6.60;;;6.00;;
5379;SDS011;2713;42.680;23.310;2023-05-07T12:05:07;5.63;;;5.13;;
5379;SDS011;2713;42.680;23.310;2023-05-07T12:07:34;5.97;;;5.47;;
5379;SDS011;2713;42.680;23.310;2023-05-07T12:10:03;6.57;;;5.77;;
5379;SDS011;2713;42.680;23.310;2023-05-07T12:12:31;6.47;;;5.40;;
5379;SDS011;2713;42.680;23.310;2023-05-07T12:15:05;5.90;;;5.40;;
5379;SDS011;2713;42.680;23.310;2023-05-07T12:17:32;6.23;;;5.77;;
5379;SDS011;2713;42.680;23.310;2023-05-07T12:20:00;5.97;;;5.47;;
5379;SDS011;2713;42.680;23.310;2023-05-07T12:22:28;6.07;;;5.50;;
5379;SDS011;2713;42.680;23.310;2023-05-07T12:24:56;5.40;;;5.00;;
5379;SDS011;2713;42.680;23.310;2023-05-07T12:27:24;5.27;;;4.40;;
5379;SDS011;2713;42.680;23.310;2023-05-07T12:29:52;4.70;;;4.30;;
5379;SDS011;2713;42.680;23.310;2023-05-07T12:32:19;4.07;;;3.77;;
5379;SDS011;2713;42.680;23.310;2023-05-07T12:34:47;5.07;;;4.67;;
5379;SDS011;2713;42.680;23.310;2023-05-07T12:37:23;5.10;;;4.80;;
5379;SDS011;2713;42.680;23.310;2023-05-07T12:40:03;5.43;;;4.93;;
5379;SDS011;2713;42.680;23.310;2023-05-07T12:42:32;4.57;;;4.27;;
5379;SDS011;2713;42.680;23.310;2023-05-07T12:45:07;5.10;;;4.70;;
5379;SDS011;2713;42.680;23.310;2023-05-07T12:47:34;4.80;;;4.40;;
5379;SDS011;2713;42.680;23.310;2023-05-07T12:50:01;5.00;;;4.57;;
5379;SDS011;2713;42.680;23.310;2023-05-07T12:52:30;7.13;;;4.97;;
5379;SDS011;2713;42.680;23.310;2023-05-07T12:54:57;4.90;;;4.53;;
5379;SDS011;2713;42.680;23.310;2023-05-07T12:57:33;4.87;;;4.57;;
5379;SDS011;2713;42.680;23.310;2023-05-07T13:00:05;4.87;;;4.57;;
5379;SDS011;2713;42.680;23.310;2023-05-07T13:02:34;5.80;;;4.90;;
5379;SDS011;2713;42.680;23.310;2023-05-07T13:05:03;4.63;;;4.23;;
5379;SDS011;2713;42.680;23.310;2023-05-07T13:07:32;5.00;;;4.70;;
5379;SDS011;2713;42.680;23.310;2023-05-07T13:09:59;5.03;;;4.63;;
5379;SDS011;2713;42.680;23.310;2023-05-07T13:12:25;4.80;;;4.40;;
5379;SDS011;2713;42.680;23.310;2023-05-07T13:14:52;4.77;;;4.27;;
5379;SDS011;2713;42.680;23.310;2023-05-07T13:17:19;4.07;;;3.77;;
5379;SDS011;2713;42.680;23.310;2023-05-07T13:19:46;5.10;;;4.70;;
5379;SDS011;2713;42.680;23.310;2023-05-07T13:22:13;5.07;;;4.57;;
5379;SDS011;2713;42.680;23.310;2023-05-07T13:24:41;4.73;;;4.43;;
5379;SDS011;2713;42.680;23.310;2023-05-07T13:27:08;5.20;;;4.80;;
5379;SDS011;2713;42.680;23.310;2023-05-07T13:29:35;6.50;;;4.90;;
5379;SDS011;2713;42.680;23.310;2023-05-07T13:32:02;5.50;;;5.00;;
5379;SDS011;2713;42.680;23.310;2023-05-07T13:34:29;5.27;;;4.33;;
5379;SDS011;2713;42.680;23.310;2023-05-07T13:36:56;5.20;;;4.70;;
5379;SDS011;2713;42.680;23.310;2023-05-07T13:39:22;4.80;;;4.50;;
5379;SDS011;2713;42.680;23.310;2023-05-07T13:41:51;6.13;;;5.60;;
5379;SDS011;2713;42.680;23.310;2023-05-07T13:44:17;5.10;;;4.73;;
5379;SDS011;2713;42.680;23.310;2023-05-07T13:46:44;5.50;;;5.10;;
5379;SDS011;2713;42.680;23.310;2023-05-07T13:49:11;5.20;;;4.87;;
5379;SDS011;2713;42.680;23.310;2023-05-07T13:51:38;5.20;;;4.80;;
5379;SDS011;2713;42.680;23.310;2023-05-07T13:54:05;5.87;;;4.57;;
5379;SDS011;2713;42.680;23.310;2023-05-07T13:56:32;5.00;;;4.40;;
5379;SDS011;2713;42.680;23.310;2023-05-07T13:59:00;6.13;;;4.70;;
5379;SDS011;2713;42.680;23.310;2023-05-07T14:01:27;5.23;;;4.83;;
5379;SDS011;2713;42.680;23.310;2023-05-07T14:03:55;5.50;;;5.03;;
5379;SDS011;2713;42.680;23.310;2023-05-07T14:06:22;4.97;;;4.57;;
5379;SDS011;2713;42.680;23.310;2023-05-07T14:08:49;5.30;;;4.90;;
5379;SDS011;2713;42.680;23.310;2023-05-07T14:11:16;5.27;;;4.77;;
5379;SDS011;2713;42.680;23.310;2023-05-07T14:13:43;4.83;;;4.43;;
5379;SDS011;2713;42.680;23.310;2023-05-07T14:16:11;6.00;;;5.40;;
5379;SDS011;2713;42.680;23.310;2023-05-07T14:18:37;4.70;;;4.40;;
5379;SDS011;2713;42.680;23.310;2023-05-07T14:21:04;4.70;;;4.37;;
5379;SDS011;2713;42.680;23.310;2023-05-07T14:23:32;5.03;;;4.73;;
5379;SDS011;2713;42.680;23.310;2023-05-07T14:25:59;4.90;;;4.60;;
5379;SDS011;2713;42.680;23.310;2023-05-07T14:28:26;5.80;;;4.80;;
5379;SDS011;2713;42.680;23.310;2023-05-07T14:30:53;5.20;;;4.80;;
5379;SDS011;2713;42.680;23.310;2023-05-07T14:33:21;5.90;;;5.20;;
5379;SDS011;2713;42.680;23.310;2023-05-07T14:35:48;5.20;;;4.70;;
5379;SDS011;2713;42.680;23.310;2023-05-07T14:38:15;4.97;;;4.60;;
5379;SDS011;2713;42.680;23.310;2023-05-07T14:40:42;5.17;;;4.77;;
5379;SDS011;2713;42.680;23.310;2023-05-07T14:43:09;4.97;;;4.57;;
5379;SDS011;2713;42.680;23.310;2023-05-07T14:45:35;5.73;;;4.70;;
5379;SDS011;2713;42.680;23.310;2023-05-07T14:48:02;5.97;;;5.07;;
5379;SDS011;2713;42.680;23.310;2023-05-07T14:50:31;4.95;;;4.65;;
5379;SDS011;2713;42.680;23.310;2023-05-07T14:52:58;5.60;;;5.20;;
5379;SDS011;2713;42.680;23.310;2023-05-07T14:55:25;5.33;;;4.80;;
5379;SDS011;2713;42.680;23.310;2023-05-07T14:57:51;4.82;;;4.43;;
5379;SDS011;2713;42.680;23.310;2023-05-07T15:00:18;4.72;;;4.32;;
5379;SDS011;2713;42.680;23.310;2023-05-07T15:02:46;5.50;;;5.00;;
5379;SDS011;2713;42.680;23.310;2023-05-07T15:05:13;4.97;;;4.60;;
5379;SDS011;2713;42.680;23.310;2023-05-07T15:07:42;5.15;;;4.75;;
5379;SDS011;2713;42.680;23.310;2023-05-07T15:10:09;4.90;;;4.50;;
5379;SDS011;2713;42.680;23.310;2023-05-07T15:12:36;4.93;;;4.53;;
5379;SDS011;2713;42.680;23.310;2023-05-07T15:15:03;4.70;;;4.40;;
5379;SDS011;2713;42.680;23.310;2023-05-07T15:17:30;5.90;;;4.70;;
5379;SDS011;2713;42.680;23.310;2023-05-07T15:19:57;5.93;;;5.30;;
5379;SDS011;2713;42.680;23.310;2023-05-07T15:22:24;6.47;;;4.67;;
5379;SDS011;2713;42.680;23.310;2023-05-07T15:24:52;5.27;;;4.87;;
5379;SDS011;2713;42.680;23.310;2023-05-07T15:27:20;5.10;;;4.70;;
5379;SDS011;2713;42.680;23.310;2023-05-07T15:29:47;5.40;;;4.90;;
5379;SDS011;2713;42.680;23.310;2023-05-07T15:32:14;5.40;;;5.00;;